Time;durP1;ratioP1;P1;durP2;ratioP2;P2;SDS_P1;SDS_P2;PMS_P1;PMS_P2;Temp;Humidity;BMP_temperature;BMP_pressure;BME280_temperature;BME280_humidity;BME280_pressure;Samples;Min_cycle;Max_cycle;Signal;HPM_P1;HPM_P2
2023/07/19 00:00:22;;;;;;;29.40;27.17;;;;;;;23.49;100.00;100939.63;5058212;28;20452;-80
2023/07/19 00:02:49;;;;;;;26.98;24.98;;;;;;;23.01;100.00;100934.13;5060603;28;20045;-81
2023/07/19 00:05:16;;;;;;;28.13;25.85;;;;;;;23.05;100.00;100928.94;5067076;28;20043;-81
2023/07/19 00:07:43;;;;;;;29.95;27.48;;;;;;;22.92;100.00;100926.88;5064152;28;20049;-80
2023/07/19 00:10:10;;;;;;;29.58;26.52;;;;;;;23.06;100.00;100931.38;5072137;28;20594;-81
2023/07/19 00:12:39;;;;;;;29.02;26.83;;;;;;;23.17;100.00;100926.66;5061656;28;20056;-78
2023/07/19 00:15:08;;;;;;;29.70;27.20;;;;;;;22.61;100.00;100932.53;5062734;28;20049;-80
2023/07/19 00:17:36;;;;;;;27.75;25.55;;;;;;;22.73;100.00;100934.88;5059745;28;20440;-80
2023/07/19 00:20:03;;;;;;;28.52;26.45;;;;;;;22.58;100.00;100941.19;5059929;28;20048;-76
2023/07/19 00:22:30;;;;;;;27.92;25.92;;;;;;;22.72;100.00;100931.34;5058147;28;20520;-77
2023/07/19 00:24:58;;;;;;;29.10;26.65;;;;;;;22.64;100.00;100946.28;5063964;28;20417;-76
2023/07/19 00:27:25;;;;;;;28.05;25.67;;;;;;;22.33;100.00;100940.25;5064805;28;20036;-76
2023/07/19 00:29:52;;;;;;;29.92;27.50;;;;;;;21.78;100.00;100941.28;5067967;28;20037;-76
2023/07/19 00:32:18;;;;;;;31.10;28.77;;;;;;;22.00;100.00;100946.31;5065539;28;20048;-76
2023/07/19 00:34:47;;;;;;;32.97;30.55;;;;;;;21.72;100.00;100948.56;5070636;28;20045;-76
2023/07/19 00:37:14;;;;;;;31.00;28.60;;;;;;;22.11;100.00;100939.78;5068437;28;20135;-76
2023/07/19 00:39:41;;;;;;;30.42;27.98;;;;;;;21.80;100.00;100937.22;5068869;28;20446;-80
2023/07/19 00:42:07;;;;;;;30.58;27.83;;;;;;;22.19;100.00;100941.97;5065407;28;20044;-80
2023/07/19 00:44:34;;;;;;;30.42;28.08;;;;;;;22.60;100.00;100939.84;5058556;28;20049;-80
2023/07/19 00:47:03;;;;;;;30.17;27.73;;;;;;;22.78;100.00;100926.69;5063757;28;20467;-80
2023/07/19 00:49:32;;;;;;;32.47;30.40;;;;;;;22.53;100.00;100927.69;5064411;28;20435;-80
2023/07/19 00:52:03;;;;;;;33.08;30.35;;;;;;;22.29;100.00;100930.28;5061396;28;20044;-80
2023/07/19 00:54:30;;;;;;;33.90;31.40;;;;;;;22.43;100.00;100936.69;5061122;28;20174;-76
2023/07/19 00:56:57;;;;;;;26.40;24.20;;;;;;;22.63;100.00;100935.72;5066856;28;20048;-76
2023/07/19 00:59:24;;;;;;;31.50;29.30;;;;;;;22.77;100.00;100934.00;5064152;28;20052;-76
2023/07/19 01:01:51;;;;;;;34.10;31.77;;;;;;;22.83;100.00;100929.38;5064249;28;20456;-76
2023/07/19 01:04:18;;;;;;;38.03;35.17;;;;;;;22.32;100.00;100929.72;5070827;28;20044;-76
2023/07/19 01:06:48;;;;;;;36.75;34.42;;;;;;;22.17;100.00;100936.81;5065950;28;20048;-76
2023/07/19 01:09:16;;;;;;;37.97;35.30;;;;;;;22.17;100.00;100944.13;5070788;28;20427;-76
2023/07/19 01:11:42;;;;;;;38.97;36.47;;;;;;;22.48;100.00;100938.53;5066312;28;20431;-76
2023/07/19 01:14:12;;;;;;;34.28;32.08;;;;;;;22.27;100.00;100946.78;5067858;28;20044;-77
2023/07/19 01:16:39;;;;;;;32.15;29.88;;;;;;;22.16;100.00;100953.31;5065100;28;20045;-76
2023/07/19 01:19:06;;;;;;;31.58;29.13;;;;;;;22.53;100.00;100949.34;5067755;28;20044;-75
2023/07/19 01:21:33;;;;;;;30.58;28.38;;;;;;;22.47;100.00;100942.34;5069161;28;20063;-76
2023/07/19 01:24:02;;;;;;;32.55;30.00;;;;;;;22.77;100.00;100936.72;5070138;28;20543;-76
2023/07/19 01:26:28;;;;;;;33.25;30.85;;;;;;;22.74;100.00;100940.00;5067240;28;20405;-76
2023/07/19 01:28:57;;;;;;;40.25;37.55;;;;;;;22.58;100.00;100947.41;5066417;28;20053;-76
2023/07/19 01:31:24;;;;;;;31.52;29.48;;;;;;;22.59;100.00;100934.69;5065155;28;20409;-76
2023/07/19 01:33:51;;;;;;;37.08;34.75;;;;;;;22.83;100.00;100942.91;5069034;28;20044;-76
2023/07/19 01:36:17;;;;;;;36.50;34.20;;;;;;;22.80;100.00;100936.16;5064910;28;20523;-76
2023/07/19 01:38:44;;;;;;;35.08;32.97;;;;;;;22.94;100.00;100933.66;5062343;28;20052;-76
2023/07/19 01:41:12;;;;;;;37.33;35.05;;;;;;;22.90;100.00;100935.25;5064764;28;20048;-80
2023/07/19 01:43:39;;;;;;;34.60;32.38;;;;;;;22.83;100.00;100938.31;5068043;28;20055;-76
2023/07/19 01:46:06;;;;;;;32.20;29.83;;;;;;;22.56;100.00;100933.34;5068255;28;20543;-76
2023/07/19 01:48:34;;;;;;;37.25;34.70;;;;;;;22.52;100.00;100939.63;5065125;28;20651;-76
2023/07/19 01:51:02;;;;;;;47.75;45.00;;;;;;;22.43;100.00;100944.81;5069322;28;20047;-76
2023/07/19 01:53:29;;;;;;;41.33;38.58;;;;;;;22.06;100.00;100953.31;5066486;28;20135;-76
2023/07/19 01:55:56;;;;;;;36.90;34.50;;;;;;;21.81;100.00;100946.94;5066498;28;20051;-76
2023/07/19 01:58:25;;;;;;;34.67;32.58;;;;;;;21.91;100.00;100951.53;5064230;28;20051;-76
2023/07/19 02:00:54;;;;;;;45.85;42.95;;;;;;;21.82;100.00;100947.75;5061433;28;20048;-76
2023/07/19 02:03:21;;;;;;;51.05;48.15;;;;;;;21.80;100.00;100942.63;5060326;28;20080;-76
2023/07/19 02:05:57;;;;;;;43.08;40.60;;;;;;;21.92;100.00;100947.72;5059385;28;20436;-76
2023/07/19 02:08:24;;;;;;;45.67;42.78;;;;;;;21.85;100.00;100958.03;5063365;28;20518;-76
2023/07/19 02:10:51;;;;;;;44.95;42.50;;;;;;;22.06;100.00;100942.50;5059840;28;20044;-76
2023/07/19 02:13:18;;;;;;;43.15;40.72;;;;;;;21.71;100.00;100952.38;5061036;28;20048;-76
2023/07/19 02:15:47;;;;;;;45.42;42.75;;;;;;;21.87;100.00;100945.81;5061462;28;20451;-76
2023/07/19 02:18:14;;;;;;;57.78;54.70;;;;;;;21.72;100.00;100952.13;5057434;28;20076;-76
2023/07/19 02:20:45;;;;;;;56.25;53.17;;;;;;;21.48;100.00;100951.06;5064677;28;20266;-76
2023/07/19 02:23:12;;;;;;;43.28;40.75;;;;;;;21.65;100.00;100954.28;5060738;28;20041;-80
2023/07/19 02:25:41;;;;;;;41.58;39.03;;;;;;;21.54;100.00;100949.97;5066021;28;20424;-80
2023/07/19 02:28:09;;;;;;;41.97;38.92;;;;;;;21.09;100.00;100964.31;5059817;28;20253;-80
2023/07/19 02:30:36;;;;;;;35.42;33.03;;;;;;;20.78;100.00;100956.19;5061038;28;20068;-80
2023/07/19 02:33:04;;;;;;;42.05;39.35;;;;;;;21.37;100.00;100963.78;5060356;28;20044;-76
2023/07/19 02:35:31;;;;;;;45.00;42.30;;;;;;;21.18;100.00;100962.69;5057889;28;20056;-80
2023/07/19 02:37:58;;;;;;;51.20;48.13;;;;;;;20.53;100.00;100954.25;5066140;28;20052;-76
2023/07/19 02:40:25;;;;;;;36.72;34.33;;;;;;;20.75;100.00;100960.22;5063134;28;20045;-76
2023/07/19 02:42:51;;;;;;;35.33;33.03;;;;;;;21.12;100.00;100961.06;5064934;28;20431;-76
2023/07/19 02:45:18;;;;;;;31.00;28.70;;;;;;;21.17;100.00;100961.06;5068338;28;20409;-76
2023/07/19 02:47:45;;;;;;;32.50;30.05;;;;;;;20.35;100.00;100964.44;5065567;28;20515;-76
2023/07/19 02:50:13;;;;;;;25.98;23.88;;;;;;;20.17;100.00;100959.50;5061519;28;20048;-77
2023/07/19 02:52:41;;;;;;;28.75;26.35;;;;;;;20.09;100.00;100963.53;5066128;28;20508;-76
2023/07/19 02:55:09;;;;;;;29.60;27.08;;;;;;;20.81;100.00;100963.75;5061384;28;20512;-76
2023/07/19 02:57:35;;;;;;;28.55;26.17;;;;;;;20.87;100.00;100969.97;5062295;28;20500;-76
2023/07/19 03:00:02;;;;;;;30.88;28.40;;;;;;;20.81;100.00;100969.16;5065549;28;20060;-76
2023/07/19 03:02:29;;;;;;;29.10;26.77;;;;;;;20.78;100.00;100962.38;5061974;28;20496;-77
2023/07/19 03:04:56;;;;;;;28.25;25.88;;;;;;;20.80;100.00;100972.94;5065955;28;20051;-76
2023/07/19 03:07:25;;;;;;;26.33;24.13;;;;;;;20.91;100.00;100971.88;5067853;28;20064;-80
2023/07/19 03:09:52;;;;;;;24.83;22.73;;;;;;;20.18;100.00;100965.72;5061893;28;20402;-80
2023/07/19 03:12:19;;;;;;;26.52;24.48;;;;;;;20.61;100.00;100964.53;5064309;28;20432;-80
2023/07/19 03:14:48;;;;;;;29.77;27.23;;;;;;;20.40;100.00;100965.53;5065407;28;20047;-75
2023/07/19 03:17:15;;;;;;;35.03;32.05;;;;;;;20.74;100.00;100968.59;5066419;28;20052;-76
2023/07/19 03:19:42;;;;;;;26.95;23.67;;;;;;;20.22;100.00;100973.03;5061141;28;20527;-76
2023/07/19 03:22:09;;;;;;;29.10;26.60;;;;;;;20.63;100.00;100978.56;5061076;28;20047;-76
2023/07/19 03:24:37;;;;;;;29.88;27.58;;;;;;;20.29;100.00;100978.16;5062410;28;20106;-76
2023/07/19 03:27:04;;;;;;;36.53;33.50;;;;;;;20.41;100.00;100978.75;5055432;28;20063;-76
2023/07/19 03:29:31;;;;;;;32.83;30.20;;;;;;;20.50;100.00;100979.84;5060497;28;20053;-76
2023/07/19 03:31:58;;;;;;;31.77;29.17;;;;;;;20.88;100.00;100968.88;5065532;28;20045;-76
2023/07/19 03:34:25;;;;;;;39.38;36.42;;;;;;;20.96;100.00;100966.47;5059964;28;20040;-76
2023/07/19 03:36:51;;;;;;;30.38;27.70;;;;;;;20.77;100.00;100965.38;5071385;28;20507;-76
2023/07/19 03:39:18;;;;;;;34.00;30.95;;;;;;;21.00;100.00;100964.88;5071840;28;20052;-76
2023/07/19 03:41:47;;;;;;;33.05;30.33;;;;;;;21.26;100.00;100960.25;5066332;28;20140;-76
2023/07/19 03:44:13;;;;;;;33.20;30.27;;;;;;;21.32;100.00;100965.66;5070942;28;20045;-76
2023/07/19 03:46:40;;;;;;;38.15;35.15;;;;;;;21.34;100.00;100963.50;5066858;28;20067;-76
2023/07/19 03:49:07;;;;;;;32.93;30.33;;;;;;;21.42;100.00;100958.41;4712197;28;10000440;-76
2023/07/19 03:51:34;;;;;;;29.38;26.98;;;;;;;21.32;100.00;100958.34;5063199;28;20056;-76
2023/07/19 03:54:01;;;;;;;29.80;27.30;;;;;;;21.36;100.00;100969.47;5065263;28;20044;-80
2023/07/19 03:56:28;;;;;;;30.90;28.48;;;;;;;21.47;100.00;100971.88;5068300;28;20583;-76
2023/07/19 03:58:56;;;;;;;32.30;29.48;;;;;;;21.69;100.00;100973.44;5063367;28;20044;-79
2023/07/19 04:01:23;;;;;;;32.58;29.77;;;;;;;21.79;100.00;100968.03;5061734;28;20052;-80
2023/07/19 04:03:50;;;;;;;32.40;29.42;;;;;;;22.11;100.00;100967.63;5059917;28;20045;-80
2023/07/19 04:06:16;;;;;;;34.95;32.03;;;;;;;22.01;100.00;100967.69;5068819;28;20052;-78
2023/07/19 04:08:43;;;;;;;32.20;29.27;;;;;;;22.04;100.00;100977.16;5065890;28;20060;-76
2023/07/19 04:11:10;;;;;;;30.63;28.25;;;;;;;22.11;100.00;100975.75;5060476;28;20045;-76
2023/07/19 04:13:37;;;;;;;29.52;27.02;;;;;;;22.13;100.00;100972.78;5064647;28;20064;-80
2023/07/19 04:16:05;;;;;;;30.05;27.08;;;;;;;21.98;100.00;100962.84;5064941;28;20071;-76
2023/07/19 04:18:32;;;;;;;28.23;25.83;;;;;;;22.20;100.00;100961.69;5060703;28;20107;-80
2023/07/19 04:20:59;;;;;;;26.60;24.20;;;;;;;22.29;100.00;100955.41;5066913;28;20055;-76
2023/07/19 04:23:26;;;;;;;27.60;25.00;;;;;;;22.30;100.00;100962.47;5063748;28;20077;-80
2023/07/19 04:25:53;;;;;;;26.23;23.52;;;;;;;22.33;100.00;100959.22;5061490;28;20425;-80
2023/07/19 04:28:20;;;;;;;28.10;25.73;;;;;;;22.45;100.00;100958.03;5069035;28;20052;-80
2023/07/19 04:30:47;;;;;;;31.30;28.90;;;;;;;22.65;100.00;100952.50;5064116;28;20148;-80
2023/07/19 04:33:16;;;;;;;29.23;26.58;;;;;;;22.70;100.00;100944.38;5066923;28;20048;-77
2023/07/19 04:35:43;;;;;;;29.65;27.27;;;;;;;22.71;100.00;100942.47;5064574;28;20072;-80
2023/07/19 04:38:10;;;;;;;32.97;30.27;;;;;;;22.92;100.00;100937.69;5065517;28;20055;-76
2023/07/19 04:40:37;;;;;;;32.63;28.63;;;;;;;23.02;100.00;100930.31;5036310;28;20274;-80
2023/07/19 04:43:05;;;;;;;31.98;29.17;;;;;;;23.03;100.00;100934.66;5040665;28;20511;-76
2023/07/19 04:45:32;;;;;;;35.10;32.33;;;;;;;23.17;100.00;100942.91;5043258;28;20048;-78
2023/07/19 04:47:58;;;;;;;35.95;32.70;;;;;;;23.37;100.00;100939.22;5046129;28;20053;-80
2023/07/19 04:50:27;;;;;;;33.63;30.92;;;;;;;23.34;100.00;100933.56;5046406;28;20048;-76
2023/07/19 04:52:54;;;;;;;30.60;28.30;;;;;;;23.47;100.00;100939.09;5044864;28;20120;-76
2023/07/19 04:55:21;;;;;;;31.52;28.52;;;;;;;23.64;100.00;100933.25;5042222;28;20080;-80
2023/07/19 04:57:48;;;;;;;29.85;27.38;;;;;;;23.79;100.00;100929.59;5043679;28;20041;-80
2023/07/19 05:00:18;;;;;;;29.58;26.75;;;;;;;23.71;100.00;100925.59;5049724;28;20045;-80
2023/07/19 05:02:45;;;;;;;31.73;28.67;;;;;;;23.92;100.00;100934.31;5042936;28;20052;-76
2023/07/19 05:05:14;;;;;;;30.55;28.00;;;;;;;24.02;100.00;100932.56;5036792;28;20053;-76
2023/07/19 05:07:42;;;;;;;30.95;28.50;;;;;;;24.20;100.00;100926.34;5040357;28;20100;-80
2023/07/19 05:10:10;;;;;;;30.52;28.02;;;;;;;24.32;100.00;100924.00;5043382;28;20057;-76
2023/07/19 05:12:37;;;;;;;31.35;28.35;;;;;;;24.52;100.00;100922.94;5045067;28;20106;-76
2023/07/19 05:15:05;;;;;;;32.10;29.15;;;;;;;24.64;100.00;100928.72;5045319;28;20501;-80
2023/07/19 05:17:32;;;;;;;29.55;27.15;;;;;;;24.70;100.00;100926.75;5042306;28;20444;-76
2023/07/19 05:19:58;;;;;;;27.75;25.25;;;;;;;24.99;100.00;100931.16;5042492;28;20061;-81
2023/07/19 05:22:26;;;;;;;28.52;26.10;;;;;;;25.03;100.00;100934.91;5042203;28;20044;-77
2023/07/19 05:24:54;;;;;;;27.50;24.88;;;;;;;25.18;100.00;100931.16;5043300;28;20051;-77
2023/07/19 05:27:22;;;;;;;26.42;23.90;;;;;;;25.30;100.00;100928.78;5040521;28;20053;-80
2023/07/19 05:29:49;;;;;;;29.17;26.27;;;;;;;25.47;100.00;100925.44;5041026;28;20427;-80
2023/07/19 05:32:16;;;;;;;29.05;26.30;;;;;;;25.69;100.00;100922.03;5040652;28;20045;-80
2023/07/19 05:34:43;;;;;;;26.45;24.05;;;;;;;25.99;100.00;100917.91;5041251;28;20053;-77
2023/07/19 05:37:09;;;;;;;26.23;23.67;;;;;;;25.99;100.00;100912.47;5033702;28;20049;-76
2023/07/19 05:39:36;;;;;;;28.42;25.98;;;;;;;26.07;100.00;100909.03;5040078;28;20072;-80
2023/07/19 05:42:05;;;;;;;28.98;26.70;;;;;;;26.18;100.00;100902.25;5038261;28;20053;-76
2023/07/19 05:44:32;;;;;;;31.05;28.35;;;;;;;26.14;100.00;100916.78;5038320;28;20057;-76
2023/07/19 05:46:59;;;;;;;32.78;28.67;;;;;;;26.77;100.00;100901.47;5040767;28;20049;-76
2023/07/19 05:49:26;;;;;;;31.83;29.08;;;;;;;26.72;100.00;100899.69;5039161;28;20041;-76
2023/07/19 05:51:53;;;;;;;31.10;28.67;;;;;;;27.09;100.00;100903.91;5038553;28;20048;-77
2023/07/19 05:54:21;;;;;;;27.23;25.02;;;;;;;27.08;100.00;100896.03;5045248;28;20041;-76
2023/07/19 05:56:48;;;;;;;28.65;26.15;;;;;;;27.21;100.00;100897.09;5041247;28;20060;-76
2023/07/19 05:59:16;;;;;;;28.13;25.92;;;;;;;27.08;100.00;100887.84;5039774;28;20045;-77
2023/07/19 06:01:43;;;;;;;30.05;27.35;;;;;;;27.17;100.00;100889.56;5039019;28;20049;-76
2023/07/19 06:04:11;;;;;;;32.45;29.52;;;;;;;27.67;100.00;100895.84;5041477;28;20045;-76
2023/07/19 06:06:38;;;;;;;29.10;26.40;;;;;;;27.74;100.00;100891.50;5044830;28;20053;-76
2023/07/19 06:09:05;;;;;;;30.52;27.60;;;;;;;28.02;100.00;100897.56;5042603;28;20049;-76
2023/07/19 06:11:32;;;;;;;31.73;29.05;;;;;;;28.03;100.00;100893.69;5044126;28;20140;-76
2023/07/19 06:13:59;;;;;;;29.95;27.75;;;;;;;28.19;100.00;100885.81;5044511;28;20512;-77
2023/07/19 06:16:28;;;;;;;28.13;25.67;;;;;;;27.77;100.00;100882.69;5042883;28;20041;-77
2023/07/19 06:18:55;;;;;;;27.58;24.88;;;;;;;28.05;100.00;100880.53;5042411;28;20044;-76
2023/07/19 06:21:24;;;;;;;25.60;23.30;;;;;;;28.01;100.00;100874.09;5042005;28;20041;-76
2023/07/19 06:23:51;;;;;;;26.73;24.27;;;;;;;28.13;100.00;100878.13;5041388;28;20071;-76
2023/07/19 06:26:18;;;;;;;26.63;24.10;;;;;;;28.59;100.00;100880.22;5043563;28;20448;-76
2023/07/19 06:28:45;;;;;;;26.30;23.90;;;;;;;28.49;100.00;100875.09;5042011;28;20044;-76
2023/07/19 06:31:12;;;;;;;24.35;22.15;;;;;;;28.40;100.00;100880.53;5040029;28;20057;-76
2023/07/19 06:33:40;;;;;;;27.45;25.25;;;;;;;28.49;100.00;100880.56;5032955;28;20060;-76
2023/07/19 06:36:07;;;;;;;26.08;24.08;;;;;;;28.80;100.00;100876.81;5038069;28;20053;-77
2023/07/19 06:38:36;;;;;;;26.52;23.90;;;;;;;28.78;100.00;100877.16;5037608;28;20440;-77
2023/07/19 06:41:04;;;;;;;26.02;23.90;;;;;;;28.79;100.00;100878.75;5037582;28;20045;-77
2023/07/19 06:43:31;;;;;;;27.20;25.20;;;;;;;28.91;100.00;100873.41;5040455;28;20420;-76
2023/07/19 06:45:58;;;;;;;27.45;25.25;;;;;;;28.93;100.00;100871.16;5034787;28;20052;-76
2023/07/19 06:48:25;;;;;;;26.80;24.73;;;;;;;29.10;100.00;100875.78;5037737;28;20051;-76
2023/07/19 06:50:53;;;;;;;28.67;26.05;;;;;;;29.02;100.00;100867.59;5035545;28;20048;-77
2023/07/19 06:53:20;;;;;;;30.65;27.75;;;;;;;28.75;100.00;100864.94;5036018;28;20044;-76
2023/07/19 06:55:47;;;;;;;41.75;28.00;;;;;;;29.42;100.00;100863.41;5042423;28;20041;-77
2023/07/19 06:58:17;;;;;;;35.60;25.80;;;;;;;29.97;100.00;100869.88;5037046;28;20050;-78
2023/07/19 07:00:43;;;;;;;29.58;23.80;;;;;;;29.77;100.00;100856.97;5040708;28;20041;-81
2023/07/19 07:03:10;;;;;;;26.17;23.52;;;;;;;29.75;100.00;100857.31;5038791;28;20052;-81
2023/07/19 07:05:38;;;;;;;25.58;23.23;;;;;;;29.59;100.00;100854.34;5045871;28;20448;-77
2023/07/19 07:08:06;;;;;;;27.77;25.40;;;;;;;29.76;100.00;100863.59;5041269;28;20049;-81
2023/07/19 07:10:33;;;;;;;27.17;25.13;;;;;;;29.74;100.00;100863.09;5045692;28;20148;-77
2023/07/19 07:13:00;;;;;;;27.00;25.00;;;;;;;29.98;100.00;100856.97;5044090;28;20500;-76
2023/07/19 07:15:27;;;;;;;25.88;23.65;;;;;;;29.92;100.00;100861.06;5044241;28;20049;-81
2023/07/19 07:17:54;;;;;;;27.20;24.73;;;;;;;29.77;100.00;100857.75;5044189;28;20049;-80
2023/07/19 07:20:21;;;;;;;25.50;23.60;;;;;;;30.03;100.00;100863.06;5042783;28;20048;-77
2023/07/19 07:22:48;;;;;;;26.70;24.45;;;;;;;30.34;100.00;100854.44;5044783;28;20053;-77
2023/07/19 07:25:16;;;;;;;27.88;25.40;;;;;;;30.39;100.00;100852.66;5038082;28;20045;-76
2023/07/19 07:27:43;;;;;;;28.65;26.05;;;;;;;30.19;100.00;100862.44;5040932;28;20072;-77
2023/07/19 07:30:10;;;;;;;27.25;24.98;;;;;;;30.22;100.00;100859.06;5047456;28;20049;-77
2023/07/19 07:32:37;;;;;;;27.55;24.95;;;;;;;30.33;100.00;100847.38;5041587;28;20536;-76
2023/07/19 07:35:06;;;;;;;28.05;25.65;;;;;;;30.58;100.00;100856.47;4952150;28;20057;-76
2023/07/19 07:37:33;;;;;;;28.58;25.90;;;;;;;30.84;100.00;100851.91;5046053;28;20048;-77
2023/07/19 07:40:00;;;;;;;28.40;25.73;;;;;;;30.74;100.00;100851.16;5044671;28;20060;-77
2023/07/19 07:42:28;;;;;;;27.58;24.95;;;;;;;31.11;100.00;100847.72;5047444;28;20459;-77
2023/07/19 07:44:55;;;;;;;27.40;25.30;;;;;;;30.69;100.00;100842.34;5047285;28;20051;-76
2023/07/19 07:47:22;;;;;;;25.77;23.58;;;;;;;31.19;100.00;100836.59;5041630;28;20041;-76
2023/07/19 07:49:49;;;;;;;27.05;25.05;;;;;;;31.30;100.00;100834.22;5040189;28;20060;-77
2023/07/19 07:52:16;;;;;;;27.83;25.67;;;;;;;31.27;100.00;100838.44;5042100;28;20052;-77
2023/07/19 07:54:44;;;;;;;29.60;27.20;;;;;;;31.31;100.00;100844.03;5047785;28;20065;-76
2023/07/19 07:57:11;;;;;;;32.90;30.58;;;;;;;31.05;100.00;100838.91;5034339;28;20131;-77
2023/07/19 07:59:40;;;;;;;31.67;29.27;;;;;;;31.30;100.00;100839.72;5040958;28;20434;-82
2023/07/19 08:02:07;;;;;;;30.73;28.33;;;;;;;31.33;100.00;100841.75;5041975;28;20037;-82
2023/07/19 08:04:35;;;;;;;32.25;29.77;;;;;;;31.23;100.00;100829.31;5044796;28;20099;-82
2023/07/19 08:07:02;;;;;;;31.25;28.73;;;;;;;31.73;100.00;100832.81;5034208;28;20487;-82
2023/07/19 08:09:28;;;;;;;39.83;36.80;;;;;;;31.76;100.00;100823.09;5051860;28;20056;-81
2023/07/19 08:11:55;;;;;;;42.25;39.35;;;;;;;31.68;100.00;100830.31;5053027;28;20535;-81
2023/07/19 08:14:22;;;;;;;40.45;37.55;;;;;;;31.80;98.68;100824.00;5049261;28;20091;-81
2023/07/19 08:16:51;;;;;;;38.47;35.13;;;;;;;31.76;97.07;100826.63;5052089;28;20053;-81
2023/07/19 08:19:18;;;;;;;36.60;33.72;;;;;;;31.71;94.09;100824.13;5050749;28;20048;-77
2023/07/19 08:21:45;;;;;;;33.83;31.30;;;;;;;31.71;97.62;100827.69;5052925;28;20508;-82
2023/07/19 08:24:12;;;;;;;35.15;32.90;;;;;;;32.12;100.00;100830.44;5052583;28;20071;-83
2023/07/19 08:26:39;;;;;;;36.33;33.85;;;;;;;31.89;95.75;100819.16;5053648;28;20080;-82
2023/07/19 08:29:06;;;;;;;37.90;35.55;;;;;;;32.31;92.68;100814.09;5052993;28;20597;-82
2023/07/19 08:31:34;;;;;;;38.20;35.70;;;;;;;32.20;97.93;100818.53;5052683;28;20053;-81
2023/07/19 08:34:02;;;;;;;36.78;34.40;;;;;;;32.37;94.06;100812.69;5053041;28;20493;-81
2023/07/19 08:36:30;;;;;;;34.15;31.85;;;;;;;32.50;100.00;100816.22;5052716;28;20053;-82
2023/07/19 08:38:57;;;;;;;34.15;31.75;;;;;;;32.58;95.20;100812.50;5052845;28;20060;-81
2023/07/19 08:41:26;;;;;;;34.70;32.17;;;;;;;32.78;70.16;100810.66;5024585;28;20064;-77
2023/07/19 08:43:55;;;;;;;32.40;30.00;;;;;;;32.80;68.29;100813.03;5036534;28;20052;-76
2023/07/19 08:46:23;;;;;;;34.30;32.00;;;;;;;32.71;71.20;100806.91;5048219;28;20041;-77
2023/07/19 08:48:50;;;;;;;33.28;30.65;;;;;;;32.92;72.14;100804.72;5050569;28;20053;-77
2023/07/19 08:51:19;;;;;;;33.45;31.15;;;;;;;33.30;68.93;100809.56;5050365;28;20048;-77
2023/07/19 08:53:49;;;;;;;34.63;32.20;;;;;;;33.23;67.06;100805.88;5046228;28;20354;-77
2023/07/19 08:56:17;;;;;;;38.38;35.78;;;;;;;33.59;68.91;100804.75;5048719;28;20056;-76
2023/07/19 08:58:45;;;;;;;40.38;37.45;;;;;;;33.70;67.76;100808.50;5050084;28;20057;-77
2023/07/19 09:01:14;;;;;;;37.75;35.15;;;;;;;33.54;65.18;100806.97;5050298;28;20045;-76
2023/07/19 09:03:41;;;;;;;34.22;31.38;;;;;;;33.47;64.70;100796.59;5050742;28;20056;-76
2023/07/19 09:06:08;;;;;;;35.20;32.10;;;;;;;33.95;78.24;100800.78;5050134;28;20520;-77
2023/07/19 09:08:38;;;;;;;34.33;31.85;;;;;;;33.45;96.53;100794.19;5048844;28;20084;-77
2023/07/19 09:11:05;;;;;;;34.35;31.75;;;;;;;33.76;73.95;100795.25;5049638;28;20564;-77
2023/07/19 09:13:33;;;;;;;33.53;30.77;;;;;;;34.59;73.87;100790.22;5048547;28;20056;-76
2023/07/19 09:16:00;;;;;;;31.60;29.10;;;;;;;34.40;62.20;100781.94;5038423;28;20077;-77
2023/07/19 09:18:35;;;;;;;30.35;27.75;;;;;;;34.47;60.69;100781.31;5049808;28;20045;-76
2023/07/19 09:21:03;;;;;;;29.70;27.50;;;;;;;34.63;61.79;100780.03;5040520;28;20457;-77
2023/07/19 09:23:34;;;;;;;31.98;29.48;;;;;;;34.36;63.57;100770.88;5050253;28;20500;-85
2023/07/19 09:26:04;;;;;;;30.63;28.33;;;;;;;34.30;62.00;100777.84;5051773;28;20045;-84
2023/07/19 09:28:34;;;;;;;31.33;28.80;;;;;;;34.03;56.64;100773.41;5046904;28;20603;-77
2023/07/19 09:31:04;;;;;;;31.58;29.00;;;;;;;34.16;54.80;100767.38;5046700;28;20041;-83
2023/07/19 09:33:31;;;;;;;29.13;26.65;;;;;;;34.22;56.52;100764.31;5049144;28;20111;-83
2023/07/19 09:35:58;;;;;;;31.25;28.58;;;;;;;34.23;59.62;100755.69;5047681;28;20060;-77
2023/07/19 09:38:27;;;;;;;31.77;29.08;;;;;;;34.74;60.81;100743.56;5048471;28;20056;-77
2023/07/19 09:40:55;;;;;;;38.25;35.05;;;;;;;34.02;55.03;100747.78;5026132;28;20663;-77
2023/07/19 09:43:23;;;;;;;39.97;37.05;;;;;;;34.48;54.62;100742.34;5042526;28;20056;-77
2023/07/19 09:45:51;;;;;;;36.42;33.83;;;;;;;34.78;60.23;100736.16;5050009;28;20421;-84
2023/07/19 09:48:19;;;;;;;36.95;33.90;;;;;;;34.68;56.17;100729.31;5050378;28;20129;-84
2023/07/19 09:50:49;;;;;;;38.22;35.42;;;;;;;35.03;58.47;100736.53;5051185;28;20061;-84
2023/07/19 09:53:20;;;;;;;38.42;35.42;;;;;;;34.89;51.45;100723.31;5050032;28;20041;-85
2023/07/19 09:55:48;;;;;;;36.20;33.40;;;;;;;34.94;52.98;100725.75;5049802;28;20056;-85
2023/07/19 09:58:16;;;;;;;38.50;35.50;;;;;;;35.14;51.70;100732.00;5050546;28;20581;-84
2023/07/19 10:00:46;;;;;;;38.28;35.58;;;;;;;34.83;54.58;100731.13;5048487;28;20072;-77
2023/07/19 10:03:18;;;;;;;41.10;38.17;;;;;;;34.57;56.76;100726.38;5047373;28;20057;-77
2023/07/19 10:05:55;;;;;;;38.67;35.85;;;;;;;34.48;62.87;100714.75;5047492;28;20045;-76
2023/07/19 10:08:22;;;;;;;36.28;33.55;;;;;;;34.89;55.41;100717.81;5044409;28;20056;-76
2023/07/19 10:10:57;;;;;;;33.55;31.02;;;;;;;34.70;66.59;100713.16;5049039;28;20049;-77
2023/07/19 10:13:29;;;;;;;36.55;33.95;;;;;;;34.68;53.00;100712.75;5046846;28;20132;-77
2023/07/19 10:15:57;;;;;;;34.80;32.10;;;;;;;35.29;53.20;100706.16;5048278;28;20107;-77
2023/07/19 10:18:27;;;;;;;38.47;35.88;;;;;;;35.31;58.91;100703.84;5049143;28;20049;-77
2023/07/19 10:21:01;;;;;;;37.45;34.58;;;;;;;36.01;58.46;100696.75;5042532;28;20041;-77
2023/07/19 10:23:30;;;;;;;33.30;30.42;;;;;;;34.28;73.62;100705.75;5045078;28;20071;-77
2023/07/19 10:25:57;;;;;;;33.65;30.80;;;;;;;34.53;58.62;100699.88;5045650;28;20119;-83
2023/07/19 10:28:39;;;;;;;35.83;32.85;;;;;;;34.28;57.51;100697.47;5038708;28;20091;-83
2023/07/19 10:31:17;;;;;;;35.20;32.33;;;;;;;35.33;58.27;100695.16;5031216;28;20053;-83
2023/07/19 10:33:54;;;;;;;35.30;32.50;;;;;;;35.62;59.64;100687.28;5031757;28;20046;-83
2023/07/19 10:36:21;;;;;;;33.90;31.02;;;;;;;35.37;61.06;100690.47;5031657;28;20060;-83
2023/07/19 10:38:48;;;;;;;29.23;26.63;;;;;;;35.20;63.70;100677.25;5031733;28;20061;-82
2023/07/19 10:41:21;;;;;;;27.52;25.15;;;;;;;35.47;76.64;100666.94;5048761;28;20044;-83
2023/07/19 10:43:48;;;;;;;26.88;24.42;;;;;;;35.52;71.46;100672.13;5036900;28;20045;-78
2023/07/19 10:46:17;;;;;;;28.95;26.63;;;;;;;35.18;73.32;100669.34;5050162;28;20456;-83
2023/07/19 10:48:44;;;;;;;30.98;28.48;;;;;;;34.47;70.74;100662.75;5039178;28;20516;-77
2023/07/19 10:51:11;;;;;;;32.30;29.73;;;;;;;35.54;62.17;100659.56;5042455;28;20040;-77
2023/07/19 10:53:43;;;;;;;34.28;31.52;;;;;;;35.49;64.90;100664.59;5047004;28;20428;-77
2023/07/19 10:56:10;;;;;;;31.13;28.20;;;;;;;34.67;75.48;100656.00;5046003;28;20056;-77
2023/07/19 10:58:37;;;;;;;30.58;28.00;;;;;;;35.22;78.39;100661.94;5047325;28;20067;-83
2023/07/19 11:04:30;;;;;;;29.40;26.92;;;;;;;33.61;93.87;100650.19;5050004;28;20039;-83
2023/07/19 11:06:59;;;;;;;29.80;27.45;;;;;;;34.16;71.40;100640.63;5045560;28;20053;-83
2023/07/19 11:09:27;;;;;;;29.25;26.75;;;;;;;33.76;88.36;100646.56;5048086;28;20052;-77